This is the latest recevied weather packets stored in our database for station/object DO2TC-13. If no packets are shown the sender has not sent any weather packets the latest 10 day(s).
| Time | Temp. | Humidity | Pressure | Rain* | Wind** | Luminosity | Snow |
|---|---|---|---|---|---|---|---|
| 1777614340 | 10.56° C | 68% | 1028.2 hPa | 0 mm | - | 185 W/m² | - |
| 1777613734 | 10° C | 69% | 1028.1 hPa | 0 mm | - | 158 W/m² | - |
| 1777613128 | 9.44° C | 70% | 1028.1 hPa | 0 mm | - | 136 W/m² | - |
| 1777611919 | - | - | 1028.1 hPa | 0 mm | - | 96 W/m² | - |
| 1777610165 | - | - | 1028 hPa | 0 mm | - | 53 W/m² | - |
| 1777607139 | - | - | 1027.8 hPa | 0 mm | - | 10 W/m² | - |
| 1777606535 | - | - | 1027.9 hPa | 0 mm | - | 5 W/m² | - |
| 1777605325 | - | - | 1027.9 hPa | 0 mm | - | 1 W/m² | - |
| 1777601751 | - | - | 1028 hPa | 0 mm | - | 0 W/m² | - |
| 1777597516 | - | - | 1027.9 hPa | 0 mm | - | 0 W/m² | - |
| 1777596367 | - | - | 1027.8 hPa | 0 mm | - | 0 W/m² | - |
| 1777592132 | - | - | 1028 hPa | 0 mm | - | 0 W/m² | - |
| 1777589772 | - | - | 1028.2 hPa | 0 mm | - | 0 W/m² | - |
| 1777588560 | - | - | 1028.1 hPa | 0 mm | - | 0 W/m² | - |
| 1777580755 | 9.44° C | 68% | 1028.4 hPa | 0 mm | - | 0 W/m² | - |
| 1777577729 | 12.78° C | 54% | 1028.6 hPa | 0 mm | - | 0 W/m² | - |
| 1777577125 | 13.33° C | 52% | 1028.4 hPa | 0 mm | - | 0 W/m² | - |
| 1777576520 | 13.33° C | 51% | 1028.4 hPa | 0 mm | - | 0 W/m² | - |
| 1777575368 | 13.89° C | 50% | 1028.3 hPa | 0 mm | - | 1 W/m² | - |
| 1777571757 | 16.67° C | 45% | 1028.1 hPa | 0 mm | - | 31 W/m² | - |
| 1777570526 | 17.22° C | 42% | 1028.1 hPa | 0 mm | - | 51 W/m² | - |
| 1777569923 | 17.78° C | 40% | 1028.1 hPa | 0 mm | - | 70 W/m² | - |
| 1777569375 | 17.78° C | 40% | 1028.3 hPa | 0 mm | - | 88 W/m² | - |
| 1777566957 | 17.78° C | 41% | 1028.4 hPa | 0 mm | - | 175 W/m² | - |
| 1777565747 | 17.78° C | 39% | 1028.6 hPa | 0 mm | - | 229 W/m² | - |
* Rain latest hour (hover to see other rain measurements)
** Current wind speed in m/s (hover to see current wind gust speed)